createdAt,value
2023-07-14T00:02:42.927Z,44.99
2023-07-14T00:08:33.748Z,45.24
2023-07-14T00:20:03.187Z,45.50
2023-07-14T00:24:54.366Z,45.53
2023-07-14T00:30:51.051Z,45.72
2023-07-14T00:36:47.334Z,45.74
2023-07-14T00:42:43.474Z,45.75
2023-07-14T00:54:46.103Z,45.68
2023-07-14T01:01:31.436Z,45.59
2023-07-14T01:07:28.915Z,45.97
2023-07-14T01:12:48.400Z,45.71
2023-07-14T01:30:02.184Z,45.89
2023-07-14T01:36:15.457Z,45.76
2023-07-14T01:41:33.459Z,45.69
2023-07-14T01:48:03.519Z,45.64
2023-07-14T01:52:35.488Z,45.62
2023-07-14T02:09:16.515Z,45.60
2023-07-14T02:15:02.885Z,45.56
2023-07-14T02:21:09.684Z,45.46
2023-07-14T02:26:13.954Z,45.52
2023-07-14T02:31:25.511Z,45.29
2023-07-14T02:37:18.554Z,45.42
2023-07-14T02:43:07.248Z,45.35
2023-07-14T02:48:29.130Z,45.03
2023-07-14T02:54:23.239Z,44.90
2023-07-14T03:03:44.810Z,44.96
2023-07-14T03:05:16.551Z,44.90
2023-07-14T03:11:22.868Z,44.82
2023-07-14T03:16:41.060Z,44.64
2023-07-14T03:21:54.422Z,44.74
2023-07-14T03:27:49.297Z,45.07
2023-07-14T03:33:51.805Z,44.93
2023-07-14T03:38:24.745Z,45.07
2023-07-14T03:44:07.917Z,45.34
2023-07-14T03:49:37.800Z,45.22
2023-07-14T03:55:18.360Z,45.27
2023-07-14T04:00:32.274Z,44.69
2023-07-14T04:05:55.963Z,44.83
2023-07-14T04:11:38.409Z,44.95
2023-07-14T04:17:35.862Z,44.90
2023-07-14T04:23:23.181Z,45.07
2023-07-14T04:29:14.085Z,45.06
2023-07-14T04:35:13.761Z,44.98
2023-07-14T04:40:37.200Z,44.98
2023-07-14T04:46:21.631Z,45.09
2023-07-14T04:57:45.595Z,45.18
2023-07-14T05:03:14.377Z,45.01
2023-07-14T05:08:44.607Z,45.16
2023-07-14T05:14:48.577Z,45.27
2023-07-14T05:20:46.593Z,45.08
2023-07-14T05:26:32.290Z,45.00
2023-07-14T05:32:17.642Z,45.13
2023-07-14T05:37:44.861Z,44.96
2023-07-14T05:43:24.732Z,45.04
2023-07-14T05:49:07.154Z,45.12
2023-07-14T05:55:28.292Z,44.88
2023-07-14T06:00:17.124Z,44.69
2023-07-14T06:06:22.399Z,44.51
2023-07-14T06:11:33.287Z,44.31
2023-07-14T06:17:06.058Z,44.23
2023-07-14T06:22:53.809Z,44.17
2023-07-14T06:28:44.995Z,44.15
2023-07-14T06:36:30.456Z,44.14
2023-07-14T06:40:14.460Z,44.04
2023-07-14T06:45:01.429Z,44.05
2023-07-14T06:51:28.911Z,44.00
2023-07-14T06:56:18.828Z,43.88
2023-07-14T07:01:25.073Z,43.94
2023-07-14T07:06:54.083Z,43.81
2023-07-14T07:12:45.610Z,43.85
2023-07-14T07:18:45.551Z,43.72
2023-07-14T07:25:19.575Z,43.29
2023-07-14T07:28:43.755Z,43.30
2023-07-14T07:33:51.690Z,43.38
2023-07-14T07:39:03.585Z,42.77
2023-07-14T07:45:09.148Z,43.30
2023-07-14T07:50:16.330Z,43.49
2023-07-14T07:56:09.163Z,43.96
2023-07-14T08:02:03.861Z,42.65
2023-07-14T08:07:15.420Z,43.06
2023-07-14T08:12:27.681Z,42.97
2023-07-14T08:17:47.149Z,42.65
2023-07-14T08:24:04.939Z,42.65
2023-07-14T08:28:42.869Z,43.07
2023-07-14T08:39:07.483Z,43.17
2023-07-14T08:45:22.635Z,43.65
2023-07-14T08:49:57.232Z,42.95
2023-07-14T08:54:24.356Z,42.77
2023-07-14T08:54:49.585Z,43.24
2023-07-14T09:00:00.204Z,43.46
2023-07-14T09:05:47.800Z,44.30
2023-07-14T09:11:42.750Z,43.56
2023-07-14T09:16:44.536Z,43.61
2023-07-14T09:22:00.477Z,43.19
2023-07-14T09:36:41.722Z,44.28
2023-07-14T09:42:22.896Z,44.25
2023-07-14T09:48:23.654Z,43.35
2023-07-14T09:54:13.973Z,43.08
2023-07-14T10:11:05.513Z,43.48
2023-07-14T10:16:21.520Z,42.99
2023-07-14T10:21:39.164Z,42.90
2023-07-14T10:36:06.477Z,43.54
2023-07-14T10:41:50.570Z,43.29
2023-07-14T10:47:42.867Z,43.64
2023-07-14T10:53:32.749Z,43.80
2023-07-14T11:00:20.968Z,43.80
2023-07-14T11:04:49.376Z,43.60
2023-07-14T11:09:58.063Z,43.76
2023-07-14T11:17:49.547Z,43.93
2023-07-14T11:21:05.078Z,43.76
2023-07-14T11:42:12.767Z,43.95
2023-07-14T12:01:02.820Z,43.81
2023-07-14T12:14:16.271Z,43.77
2023-07-14T12:31:47.506Z,43.67
2023-07-14T12:37:47.773Z,43.70
2023-07-14T12:44:12.900Z,43.67
2023-07-14T12:50:01.491Z,43.62
2023-07-14T13:06:33.672Z,43.63
2023-07-14T13:12:31.281Z,43.63
2023-07-14T13:34:02.906Z,43.71
2023-07-14T13:49:11.958Z,43.74
2023-07-14T13:56:03.148Z,43.70
2023-07-14T14:03:33.721Z,43.67
2023-07-14T14:12:39.578Z,43.62
2023-07-14T14:18:55.667Z,43.59
2023-07-14T14:24:46.791Z,43.54
2023-07-14T15:43:26.453Z,43.40
2023-07-14T15:52:39.939Z,43.38
2023-07-14T15:58:42.432Z,43.32
2023-07-14T16:04:25.175Z,43.33
2023-07-14T16:10:11.621Z,43.51
2023-07-14T16:15:54.112Z,43.46
2023-07-14T16:26:20.165Z,43.55
2023-07-14T16:31:50.139Z,43.33
2023-07-14T16:36:59.233Z,43.23
2023-07-14T16:43:07.479Z,43.15
2023-07-14T16:49:11.348Z,43.05
2023-07-14T16:54:30.093Z,42.99
2023-07-14T17:00:15.568Z,42.96
2023-07-14T17:06:02.697Z,42.93
2023-07-14T17:23:11.992Z,42.98
2023-07-14T17:34:14.285Z,43.04
2023-07-14T17:39:57.932Z,43.04
2023-07-14T17:45:43.075Z,43.04
2023-07-14T17:51:29.634Z,43.06
2023-07-14T17:57:21.011Z,43.08
2023-07-14T18:08:43.268Z,43.14
2023-07-14T18:13:17.594Z,43.22
2023-07-14T18:19:04.641Z,43.32
2023-07-14T18:24:58.342Z,43.35
2023-07-14T18:30:12.347Z,43.38
2023-07-14T18:35:59.574Z,43.42
2023-07-14T18:41:41.986Z,43.51
2023-07-14T18:47:24.546Z,43.69
2023-07-14T18:58:20.946Z,44.11
2023-07-14T19:04:03.569Z,44.58
2023-07-14T19:09:53.293Z,44.50
2023-07-14T19:21:27.050Z,44.78
2023-07-14T19:27:09.319Z,44.85
2023-07-14T19:32:58.615Z,45.84
2023-07-14T19:44:43.534Z,45.79
2023-07-14T19:50:14.121Z,46.67
2023-07-14T20:01:28.676Z,46.70
2023-07-14T20:07:16.208Z,47.17
2023-07-14T20:12:58.918Z,47.02
2023-07-14T20:18:50.757Z,46.95
2023-07-14T20:35:20.404Z,47.32
2023-07-14T20:41:07.734Z,47.54
2023-07-14T20:49:10.786Z,47.25
2023-07-14T20:54:08.088Z,47.72
2023-07-14T20:58:20.280Z,47.77
2023-07-14T21:04:11.619Z,46.63
2023-07-14T21:09:16.020Z,47.49
2023-07-14T21:14:39.411Z,47.88
2023-07-14T21:19:57.991Z,48.15
2023-07-14T21:25:27.649Z,47.89
2023-07-14T21:31:25.666Z,47.74
2023-07-14T21:37:03.159Z,47.45
2023-07-14T21:42:40.266Z,47.39
2023-07-14T21:48:27.589Z,47.35
2023-07-14T21:54:18.812Z,47.13
2023-07-14T22:04:18.081Z,46.99
2023-07-14T22:05:01.929Z,46.70
2023-07-14T22:10:59.331Z,46.39
2023-07-14T22:16:36.365Z,46.41
2023-07-14T22:21:53.903Z,46.14
2023-07-14T22:27:06.450Z,45.55
2023-07-14T22:32:27.226Z,45.14
2023-07-14T22:38:12.963Z,44.36
2023-07-14T22:43:57.116Z,43.71
2023-07-14T22:50:27.394Z,43.26
2023-07-14T22:54:30.761Z,42.79
2023-07-14T22:59:37.080Z,42.40
2023-07-14T23:05:02.489Z,42.25
2023-07-14T23:10:16.809Z,42.24
2023-07-14T23:16:04.323Z,42.19
2023-07-14T23:21:49.679Z,42.23
2023-07-14T23:27:10.819Z,42.02
2023-07-14T23:32:55.494Z,41.86
2023-07-14T23:38:16.161Z,41.73
2023-07-14T23:44:13.363Z,41.73
2023-07-14T23:49:26.690Z,41.59
2023-07-14T23:54:41.285Z,41.58
